Rio Claro, Brazil
Current Conditions -  °F | °C
As of 5:00 AM on Sunday 23 Nov 2014 (Local Time) from SBSC Reporting Station
Broken Clouds Broken Clouds  
Wind Chill: 75°   Ceiling: 10000
Heat Index: 75°   Visibility: 5mi
Dew Point: 68°   Wind: 10mph
Humidity: 78%   Direction: 360°N
Pressure: 29.8"   Gusts: NA
Location:  22.72°S, 44.14°W
Report Text: SBSC 230700Z 36009KT 8000 SCT016 BKN100 24/20 Q1009
Loading
Personal Weather Stations






























Interactive Weather Map New forecast layout! Learn more

10-Day Weather Forecast

Advertisements
Track Severe Weather on mobile